sensor_id;sensor_type;location;lat;lon;timestamp;P1;P2;P0
49343;PMS5003;35210;41.606;-87.602;2023-03-20T00:00:58;8.00;6.60;3.00
49343;PMS5003;35210;41.606;-87.602;2023-03-20T00:03:26;10.40;8.20;3.00
49343;PMS5003;35210;41.606;-87.602;2023-03-20T00:05:56;7.80;6.40;3.00
49343;PMS5003;35210;41.606;-87.602;2023-03-20T00:08:27;10.60;8.60;3.20
49343;PMS5003;35210;41.606;-87.602;2023-03-20T00:10:56;9.80;6.80;5.00
49343;PMS5003;35210;41.606;-87.602;2023-03-20T00:13:25;9.60;9.40;6.00
49343;PMS5003;35210;41.606;-87.602;2023-03-20T00:15:54;8.80;6.40;3.00
49343;PMS5003;35210;41.606;-87.602;2023-03-20T00:18:22;11.40;10.20;6.00
49343;PMS5003;35210;41.606;-87.602;2023-03-20T00:20:52;7.40;7.40;3.00
49343;PMS5003;35210;41.606;-87.602;2023-03-20T00:23:21;11.20;9.60;5.00
49343;PMS5003;35210;41.606;-87.602;2023-03-20T00:25:52;8.60;8.20;5.00
49343;PMS5003;35210;41.606;-87.602;2023-03-20T00:28:34;14.40;10.20;5.00
49343;PMS5003;35210;41.606;-87.602;2023-03-20T00:31:09;14.20;10.40;5.60
49343;PMS5003;35210;41.606;-87.602;2023-03-20T00:33:46;12.20;10.00;5.00
49343;PMS5003;35210;41.606;-87.602;2023-03-20T00:36:14;13.60;9.20;5.00
49343;PMS5003;35210;41.606;-87.602;2023-03-20T00:38:43;11.40;11.40;5.60
49343;PMS5003;35210;41.606;-87.602;2023-03-20T00:41:17;14.00;10.40;4.40
49343;PMS5003;35210;41.606;-87.602;2023-03-20T00:43:52;11.60;10.80;6.60
49343;PMS5003;35210;41.606;-87.602;2023-03-20T00:46:24;11.80;11.80;5.60
49343;PMS5003;35210;41.606;-87.602;2023-03-20T00:48:53;11.20;11.20;7.20
49343;PMS5003;35210;41.606;-87.602;2023-03-20T00:51:21;10.80;10.00;7.00
49343;PMS5003;35210;41.606;-87.602;2023-03-20T00:53:49;13.40;11.20;5.80
49343;PMS5003;35210;41.606;-87.602;2023-03-20T00:56:26;15.60;9.00;5.40
49343;PMS5003;35210;41.606;-87.602;2023-03-20T00:58:58;4.20;4.20;0.80
49343;PMS5003;35210;41.606;-87.602;2023-03-20T01:01:28;10.00;9.60;4.40
49343;PMS5003;35210;41.606;-87.602;2023-03-20T01:03:57;7.80;7.20;4.00
49343;PMS5003;35210;41.606;-87.602;2023-03-20T01:06:26;7.40;4.20;2.00
49343;PMS5003;35210;41.606;-87.602;2023-03-20T01:08:55;5.80;5.40;2.00
49343;PMS5003;35210;41.606;-87.602;2023-03-20T01:11:26;8.00;5.00;1.20
49343;PMS5003;35210;41.606;-87.602;2023-03-20T01:13:54;5.20;4.00;2.00
49343;PMS5003;35210;41.606;-87.602;2023-03-20T01:16:23;7.60;3.40;1.60
49343;PMS5003;35210;41.606;-87.602;2023-03-20T01:18:53;5.00;5.00;0.00
49343;PMS5003;35210;41.606;-87.602;2023-03-20T01:21:21;5.20;5.00;2.00
49343;PMS5003;35210;41.606;-87.602;2023-03-20T01:23:50;4.60;4.60;1.80
49343;PMS5003;35210;41.606;-87.602;2023-03-20T01:26:20;5.00;5.00;1.00
49343;PMS5003;35210;41.606;-87.602;2023-03-20T01:28:52;7.00;5.20;2.00
49343;PMS5003;35210;41.606;-87.602;2023-03-20T01:31:20;5.20;4.20;1.00
49343;PMS5003;35210;41.606;-87.602;2023-03-20T01:33:48;4.80;3.40;1.20
49343;PMS5003;35210;41.606;-87.602;2023-03-20T01:36:16;4.80;2.00;1.00
49343;PMS5003;35210;41.606;-87.602;2023-03-20T01:38:48;7.20;4.00;1.00
49343;PMS5003;35210;41.606;-87.602;2023-03-20T01:41:21;5.20;4.80;1.00
49343;PMS5003;35210;41.606;-87.602;2023-03-20T01:43:52;2.00;2.00;1.00
49343;PMS5003;35210;41.606;-87.602;2023-03-20T01:46:22;5.60;4.40;1.60
49343;PMS5003;35210;41.606;-87.602;2023-03-20T01:49:00;4.00;4.00;1.00
49343;PMS5003;35210;41.606;-87.602;2023-03-20T01:51:34;4.40;4.40;2.00
49343;PMS5003;35210;41.606;-87.602;2023-03-20T01:54:03;2.00;2.00;1.00
49343;PMS5003;35210;41.606;-87.602;2023-03-20T01:56:36;4.00;4.00;1.00
49343;PMS5003;35210;41.606;-87.602;2023-03-20T01:59:15;4.00;4.00;2.00
49343;PMS5003;35210;41.606;-87.602;2023-03-20T02:01:47;5.60;5.60;4.00
49343;PMS5003;35210;41.606;-87.602;2023-03-20T02:04:15;5.20;5.20;2.00
49343;PMS5003;35210;41.606;-87.602;2023-03-20T02:06:46;6.00;6.00;4.00
49343;PMS5003;35210;41.606;-87.602;2023-03-20T02:09:14;4.40;2.00;1.80
49343;PMS5003;35210;41.606;-87.602;2023-03-20T02:11:44;6.20;4.00;1.00
49343;PMS5003;35210;41.606;-87.602;2023-03-20T02:14:14;6.80;2.40;1.00
49343;PMS5003;35210;41.606;-87.602;2023-03-20T02:16:43;4.40;4.40;1.80
49343;PMS5003;35210;41.606;-87.602;2023-03-20T02:19:13;6.00;4.00;1.60
49343;PMS5003;35210;41.606;-87.602;2023-03-20T02:22:08;4.80;4.80;1.00
49343;PMS5003;35210;41.606;-87.602;2023-03-20T02:28:04;5.00;4.00;2.00
49343;PMS5003;35210;41.606;-87.602;2023-03-20T02:30:57;4.40;4.40;1.00
49343;PMS5003;35210;41.606;-87.602;2023-03-20T02:33:54;7.60;4.40;2.00
49343;PMS5003;35210;41.606;-87.602;2023-03-20T02:39:47;5.00;3.60;1.40
49343;PMS5003;35210;41.606;-87.602;2023-03-20T02:42:27;6.20;4.40;1.40
49343;PMS5003;35210;41.606;-87.602;2023-03-20T02:45:02;7.60;5.00;2.00
49343;PMS5003;35210;41.606;-87.602;2023-03-20T02:47:41;8.60;5.80;1.20
49343;PMS5003;35210;41.606;-87.602;2023-03-20T02:50:16;5.40;5.00;3.20
49343;PMS5003;35210;41.606;-87.602;2023-03-20T02:52:57;5.80;5.80;2.00
49343;PMS5003;35210;41.606;-87.602;2023-03-20T02:55:38;8.40;4.00;1.20
49343;PMS5003;35210;41.606;-87.602;2023-03-20T02:58:13;4.00;2.40;1.00
49343;PMS5003;35210;41.606;-87.602;2023-03-20T03:00:46;11.20;5.20;1.40
49343;PMS5003;35210;41.606;-87.602;2023-03-20T03:03:23;3.60;3.60;1.00
49343;PMS5003;35210;41.606;-87.602;2023-03-20T03:05:56;5.00;4.00;1.00
49343;PMS5003;35210;41.606;-87.602;2023-03-20T03:08:31;8.20;5.00;2.00
49343;PMS5003;35210;41.606;-87.602;2023-03-20T03:11:06;8.00;3.20;1.00
49343;PMS5003;35210;41.606;-87.602;2023-03-20T03:13:36;2.40;1.00;0.00
49343;PMS5003;35210;41.606;-87.602;2023-03-20T03:16:10;2.00;2.00;0.00
49343;PMS5003;35210;41.606;-87.602;2023-03-20T03:18:42;4.80;4.80;1.00
49343;PMS5003;35210;41.606;-87.602;2023-03-20T03:21:13;2.80;2.40;1.00
49343;PMS5003;35210;41.606;-87.602;2023-03-20T03:23:45;1.60;1.60;0.80
49343;PMS5003;35210;41.606;-87.602;2023-03-20T03:26:18;2.40;2.00;1.00
49343;PMS5003;35210;41.606;-87.602;2023-03-20T03:28:51;4.40;4.20;1.20
49343;PMS5003;35210;41.606;-87.602;2023-03-20T03:31:24;3.60;1.60;1.00
49343;PMS5003;35210;41.606;-87.602;2023-03-20T03:33:54;4.80;2.80;1.00
49343;PMS5003;35210;41.606;-87.602;2023-03-20T03:36:28;4.00;4.00;2.00
49343;PMS5003;35210;41.606;-87.602;2023-03-20T03:39:08;3.20;3.20;2.20
49343;PMS5003;35210;41.606;-87.602;2023-03-20T03:41:45;7.60;3.60;1.00
49343;PMS5003;35210;41.606;-87.602;2023-03-20T03:44:19;5.00;2.00;1.00
49343;PMS5003;35210;41.606;-87.602;2023-03-20T03:46:53;3.80;2.40;0.60
49343;PMS5003;35210;41.606;-87.602;2023-03-20T03:49:25;7.40;3.60;1.00
49343;PMS5003;35210;41.606;-87.602;2023-03-20T03:52:00;5.00;4.00;1.00
49343;PMS5003;35210;41.606;-87.602;2023-03-20T03:54:32;2.00;2.00;0.20
49343;PMS5003;35210;41.606;-87.602;2023-03-20T03:57:06;3.40;3.40;1.20
49343;PMS5003;35210;41.606;-87.602;2023-03-20T03:59:37;5.40;3.60;0.00
49343;PMS5003;35210;41.606;-87.602;2023-03-20T04:02:08;2.00;2.00;1.00
49343;PMS5003;35210;41.606;-87.602;2023-03-20T04:04:38;4.00;4.00;1.00
49343;PMS5003;35210;41.606;-87.602;2023-03-20T04:07:09;5.00;5.00;1.00
49343;PMS5003;35210;41.606;-87.602;2023-03-20T04:09:39;3.00;2.00;1.00
49343;PMS5003;35210;41.606;-87.602;2023-03-20T04:12:17;5.60;2.40;1.40
49343;PMS5003;35210;41.606;-87.602;2023-03-20T04:15:10;2.80;2.80;1.00
49343;PMS5003;35210;41.606;-87.602;2023-03-20T04:17:38;3.20;3.20;0.40
49343;PMS5003;35210;41.606;-87.602;2023-03-20T04:20:08;1.20;1.20;0.60
49343;PMS5003;35210;41.606;-87.602;2023-03-20T04:22:38;4.00;4.00;1.60
49343;PMS5003;35210;41.606;-87.602;2023-03-20T04:25:08;2.00;2.00;1.40
49343;PMS5003;35210;41.606;-87.602;2023-03-20T04:27:43;4.20;3.80;1.20
49343;PMS5003;35210;41.606;-87.602;2023-03-20T04:30:13;4.20;4.20;1.80
49343;PMS5003;35210;41.606;-87.602;2023-03-20T04:32:41;4.20;4.20;1.00
49343;PMS5003;35210;41.606;-87.602;2023-03-20T04:35:09;4.00;4.00;1.00
49343;PMS5003;35210;41.606;-87.602;2023-03-20T04:37:38;4.00;2.00;1.00
49343;PMS5003;35210;41.606;-87.602;2023-03-20T04:40:06;2.80;2.80;1.00
49343;PMS5003;35210;41.606;-87.602;2023-03-20T04:42:35;5.20;5.00;2.00
49343;PMS5003;35210;41.606;-87.602;2023-03-20T04:45:05;7.20;4.00;1.00
49343;PMS5003;35210;41.606;-87.602;2023-03-20T04:47:34;4.00;4.00;2.00
49343;PMS5003;35210;41.606;-87.602;2023-03-20T04:50:02;5.20;2.80;0.00
49343;PMS5003;35210;41.606;-87.602;2023-03-20T04:52:31;4.20;4.20;1.60
49343;PMS5003;35210;41.606;-87.602;2023-03-20T04:54:59;2.80;1.20;0.20
49343;PMS5003;35210;41.606;-87.602;2023-03-20T04:57:28;5.00;4.00;2.00
49343;PMS5003;35210;41.606;-87.602;2023-03-20T04:59:57;4.00;3.00;1.00
49343;PMS5003;35210;41.606;-87.602;2023-03-20T05:02:27;4.40;3.60;1.00
49343;PMS5003;35210;41.606;-87.602;2023-03-20T05:04:55;4.20;1.20;1.00
49343;PMS5003;35210;41.606;-87.602;2023-03-20T05:07:23;1.40;1.40;0.00
49343;PMS5003;35210;41.606;-87.602;2023-03-20T05:09:51;4.00;4.00;1.00
49343;PMS5003;35210;41.606;-87.602;2023-03-20T05:12:19;1.20;1.20;0.20
49343;PMS5003;35210;41.606;-87.602;2023-03-20T05:14:48;2.80;2.80;1.40
49343;PMS5003;35210;41.606;-87.602;2023-03-20T05:17:17;7.00;4.80;1.60
49343;PMS5003;35210;41.606;-87.602;2023-03-20T05:19:48;0.60;0.60;0.00
49343;PMS5003;35210;41.606;-87.602;2023-03-20T05:22:16;8.20;5.80;2.00
49343;PMS5003;35210;41.606;-87.602;2023-03-20T05:24:45;7.20;2.00;1.00
49343;PMS5003;35210;41.606;-87.602;2023-03-20T05:27:13;4.80;4.80;2.00
49343;PMS5003;35210;41.606;-87.602;2023-03-20T05:29:44;7.00;7.00;3.20
49343;PMS5003;35210;41.606;-87.602;2023-03-20T05:32:13;8.00;6.60;2.00
49343;PMS5003;35210;41.606;-87.602;2023-03-20T05:34:42;5.80;5.80;2.00
49343;PMS5003;35210;41.606;-87.602;2023-03-20T05:37:12;8.80;8.00;4.20
49343;PMS5003;35210;41.606;-87.602;2023-03-20T05:39:40;6.80;5.00;2.00
49343;PMS5003;35210;41.606;-87.602;2023-03-20T05:42:08;2.00;2.00;1.00
49343;PMS5003;35210;41.606;-87.602;2023-03-20T05:44:36;6.20;5.60;3.20
49343;PMS5003;35210;41.606;-87.602;2023-03-20T05:47:05;6.20;5.00;2.00
49343;PMS5003;35210;41.606;-87.602;2023-03-20T05:49:34;7.80;6.40;3.20
49343;PMS5003;35210;41.606;-87.602;2023-03-20T05:52:02;4.80;4.80;2.00
49343;PMS5003;35210;41.606;-87.602;2023-03-20T05:54:31;8.00;8.00;4.00
49343;PMS5003;35210;41.606;-87.602;2023-03-20T05:56:59;4.60;3.20;2.00
49343;PMS5003;35210;41.606;-87.602;2023-03-20T05:59:28;6.80;6.40;4.00
49343;PMS5003;35210;41.606;-87.602;2023-03-20T06:01:56;5.00;5.00;2.00
49343;PMS5003;35210;41.606;-87.602;2023-03-20T06:04:25;2.00;2.00;2.00
49343;PMS5003;35210;41.606;-87.602;2023-03-20T06:06:53;4.20;4.00;2.00
49343;PMS5003;35210;41.606;-87.602;2023-03-20T06:09:22;4.60;4.60;2.00
49343;PMS5003;35210;41.606;-87.602;2023-03-20T06:11:52;7.00;5.00;2.00
49343;PMS5003;35210;41.606;-87.602;2023-03-20T06:14:20;8.40;5.80;2.00
49343;PMS5003;35210;41.606;-87.602;2023-03-20T06:16:48;5.40;5.40;2.00
49343;PMS5003;35210;41.606;-87.602;2023-03-20T06:19:18;7.80;4.60;2.00
49343;PMS5003;35210;41.606;-87.602;2023-03-20T06:21:47;8.20;7.40;2.80
49343;PMS5003;35210;41.606;-87.602;2023-03-20T06:24:16;7.00;4.60;3.20
49343;PMS5003;35210;41.606;-87.602;2023-03-20T06:26:44;7.80;7.80;2.00
49343;PMS5003;35210;41.606;-87.602;2023-03-20T06:29:14;6.60;6.60;2.00
49343;PMS5003;35210;41.606;-87.602;2023-03-20T06:31:42;5.20;5.00;1.80
49343;PMS5003;35210;41.606;-87.602;2023-03-20T06:34:10;8.00;6.60;2.00
49343;PMS5003;35210;41.606;-87.602;2023-03-20T06:36:38;9.80;7.00;2.40
49343;PMS5003;35210;41.606;-87.602;2023-03-20T06:39:06;8.60;7.80;2.00
49343;PMS5003;35210;41.606;-87.602;2023-03-20T06:41:36;6.40;5.00;2.00
49343;PMS5003;35210;41.606;-87.602;2023-03-20T06:44:04;10.20;5.80;3.20
49343;PMS5003;35210;41.606;-87.602;2023-03-20T06:46:35;5.00;5.00;2.00
49343;PMS5003;35210;41.606;-87.602;2023-03-20T06:49:03;4.40;2.00;1.80
49343;PMS5003;35210;41.606;-87.602;2023-03-20T06:51:31;6.20;4.80;2.80
49343;PMS5003;35210;41.606;-87.602;2023-03-20T06:53:59;8.00;6.80;2.00
49343;PMS5003;35210;41.606;-87.602;2023-03-20T06:56:27;5.00;5.00;2.00
49343;PMS5003;35210;41.606;-87.602;2023-03-20T06:58:56;8.00;7.40;2.80
49343;PMS5003;35210;41.606;-87.602;2023-03-20T07:01:24;9.40;5.80;2.00
49343;PMS5003;35210;41.606;-87.602;2023-03-20T07:03:55;7.00;7.00;4.00
49343;PMS5003;35210;41.606;-87.602;2023-03-20T07:06:24;4.80;4.80;2.40
49343;PMS5003;35210;41.606;-87.602;2023-03-20T07:08:52;8.00;5.80;2.80
49343;PMS5003;35210;41.606;-87.602;2023-03-20T07:11:20;8.00;8.00;2.40
49343;PMS5003;35210;41.606;-87.602;2023-03-20T07:13:48;10.40;8.00;4.20
49343;PMS5003;35210;41.606;-87.602;2023-03-20T07:16:16;5.60;5.20;2.00
49343;PMS5003;35210;41.606;-87.602;2023-03-20T07:18:44;6.00;6.00;2.00
49343;PMS5003;35210;41.606;-87.602;2023-03-20T07:21:15;11.80;8.80;4.00
49343;PMS5003;35210;41.606;-87.602;2023-03-20T07:23:46;4.00;2.00;1.00
49343;PMS5003;35210;41.606;-87.602;2023-03-20T07:26:14;6.40;6.20;3.60
49343;PMS5003;35210;41.606;-87.602;2023-03-20T07:28:43;8.40;7.00;4.00
49343;PMS5003;35210;41.606;-87.602;2023-03-20T07:31:13;5.80;5.40;3.20
49343;PMS5003;35210;41.606;-87.602;2023-03-20T07:33:46;9.20;5.00;4.00
49343;PMS5003;35210;41.606;-87.602;2023-03-20T07:36:16;7.00;7.00;4.00
49343;PMS5003;35210;41.606;-87.602;2023-03-20T07:38:45;7.20;5.80;4.00
49343;PMS5003;35210;41.606;-87.602;2023-03-20T07:41:13;8.80;7.40;2.40
49343;PMS5003;35210;41.606;-87.602;2023-03-20T07:43:41;7.40;6.20;4.00
49343;PMS5003;35210;41.606;-87.602;2023-03-20T07:46:09;9.80;6.20;2.00
49343;PMS5003;35210;41.606;-87.602;2023-03-20T07:48:37;7.60;6.20;2.00
49343;PMS5003;35210;41.606;-87.602;2023-03-20T07:51:09;10.40;8.40;4.00
49343;PMS5003;35210;41.606;-87.602;2023-03-20T07:53:38;8.00;6.20;2.00
49343;PMS5003;35210;41.606;-87.602;2023-03-20T07:56:07;6.60;6.20;2.00
49343;PMS5003;35210;41.606;-87.602;2023-03-20T07:58:36;10.80;6.60;2.00
49343;PMS5003;35210;41.606;-87.602;2023-03-20T08:01:04;5.00;3.20;1.20
49343;PMS5003;35210;41.606;-87.602;2023-03-20T08:03:32;10.80;7.00;3.20
49343;PMS5003;35210;41.606;-87.602;2023-03-20T08:06:00;7.60;6.60;2.00
49343;PMS5003;35210;41.606;-87.602;2023-03-20T08:08:30;7.20;5.00;2.00
49343;PMS5003;35210;41.606;-87.602;2023-03-20T08:11:00;7.40;5.80;2.00
49343;PMS5003;35210;41.606;-87.602;2023-03-20T08:13:28;6.40;5.00;4.00
49343;PMS5003;35210;41.606;-87.602;2023-03-20T08:15:57;7.00;7.00;3.60
49343;PMS5003;35210;41.606;-87.602;2023-03-20T08:18:25;6.20;4.60;4.00
49343;PMS5003;35210;41.606;-87.602;2023-03-20T08:20:53;11.60;8.60;4.40
49343;PMS5003;35210;41.606;-87.602;2023-03-20T08:23:21;8.00;7.00;3.60
49343;PMS5003;35210;41.606;-87.602;2023-03-20T08:25:50;11.20;5.00;3.20
49343;PMS5003;35210;41.606;-87.602;2023-03-20T08:28:21;7.00;5.00;0.20
49343;PMS5003;35210;41.606;-87.602;2023-03-20T08:30:51;7.20;7.20;3.20
49343;PMS5003;35210;41.606;-87.602;2023-03-20T08:33:19;9.60;7.00;2.00
49343;PMS5003;35210;41.606;-87.602;2023-03-20T08:35:54;7.80;7.20;4.40
49343;PMS5003;35210;41.606;-87.602;2023-03-20T08:38:22;5.80;5.80;3.60
49343;PMS5003;35210;41.606;-87.602;2023-03-20T08:40:51;6.20;6.20;4.00
49343;PMS5003;35210;41.606;-87.602;2023-03-20T08:43:21;6.80;5.20;2.00
49343;PMS5003;35210;41.606;-87.602;2023-03-20T08:45:51;9.00;7.00;4.00
49343;PMS5003;35210;41.606;-87.602;2023-03-20T08:48:20;8.00;6.20;2.00
49343;PMS5003;35210;41.606;-87.602;2023-03-20T08:50:48;9.40;5.40;2.80
49343;PMS5003;35210;41.606;-87.602;2023-03-20T08:53:16;7.80;5.40;2.00
49343;PMS5003;35210;41.606;-87.602;2023-03-20T08:55:46;5.80;5.80;2.40
49343;PMS5003;35210;41.606;-87.602;2023-03-20T08:58:15;6.20;5.00;2.00
49343;PMS5003;35210;41.606;-87.602;2023-03-20T09:00:47;8.00;6.20;4.00
49343;PMS5003;35210;41.606;-87.602;2023-03-20T09:03:16;10.80;10.20;4.20
49343;PMS5003;35210;41.606;-87.602;2023-03-20T09:05:46;7.60;7.40;4.00
49343;PMS5003;35210;41.606;-87.602;2023-03-20T09:08:16;5.00;5.00;2.40
49343;PMS5003;35210;41.606;-87.602;2023-03-20T09:10:46;7.60;7.60;4.00
49343;PMS5003;35210;41.606;-87.602;2023-03-20T09:13:15;6.40;6.00;3.20
49343;PMS5003;35210;41.606;-87.602;2023-03-20T09:15:44;8.80;8.80;4.60
49343;PMS5003;35210;41.606;-87.602;2023-03-20T09:18:13;10.60;7.60;4.00
49343;PMS5003;35210;41.606;-87.602;2023-03-20T09:20:41;7.80;6.60;2.00
49343;PMS5003;35210;41.606;-87.602;2023-03-20T09:23:09;8.00;7.80;2.00
49343;PMS5003;35210;41.606;-87.602;2023-03-20T09:25:37;7.00;7.00;4.00
49343;PMS5003;35210;41.606;-87.602;2023-03-20T09:28:06;5.40;5.40;2.40
49343;PMS5003;35210;41.606;-87.602;2023-03-20T09:30:34;5.00;5.00;2.80
49343;PMS5003;35210;41.606;-87.602;2023-03-20T09:33:04;5.40;4.60;1.00
49343;PMS5003;35210;41.606;-87.602;2023-03-20T09:35:32;13.40;10.40;6.20
49343;PMS5003;35210;41.606;-87.602;2023-03-20T09:38:00;6.20;4.20;0.00
49343;PMS5003;35210;41.606;-87.602;2023-03-20T09:40:29;9.60;7.20;4.00
49343;PMS5003;35210;41.606;-87.602;2023-03-20T09:43:09;9.20;7.40;4.00
49343;PMS5003;35210;41.606;-87.602;2023-03-20T09:45:48;5.80;5.80;2.80
49343;PMS5003;35210;41.606;-87.602;2023-03-20T09:48:26;7.60;7.60;5.00
49343;PMS5003;35210;41.606;-87.602;2023-03-20T09:51:02;16.00;10.00;5.00
49343;PMS5003;35210;41.606;-87.602;2023-03-20T09:53:42;8.40;8.00;4.40
49343;PMS5003;35210;41.606;-87.602;2023-03-20T09:56:15;7.40;5.00;2.00
49343;PMS5003;35210;41.606;-87.602;2023-03-20T09:58:49;17.20;12.60;4.00
49343;PMS5003;35210;41.606;-87.602;2023-03-20T10:01:21;10.80;9.60;4.40
49343;PMS5003;35210;41.606;-87.602;2023-03-20T10:04:00;14.80;9.80;2.40
49343;PMS5003;35210;41.606;-87.602;2023-03-20T10:06:33;10.40;9.60;5.80
49343;PMS5003;35210;41.606;-87.602;2023-03-20T10:09:01;8.40;7.20;4.00
49343;PMS5003;35210;41.606;-87.602;2023-03-20T10:12:00;11.80;11.00;5.00
49343;PMS5003;35210;41.606;-87.602;2023-03-20T10:14:42;12.20;10.00;5.00
49343;PMS5003;35210;41.606;-87.602;2023-03-20T10:17:20;13.20;10.60;6.60
49343;PMS5003;35210;41.606;-87.602;2023-03-20T10:20:11;13.60;10.40;4.00
49343;PMS5003;35210;41.606;-87.602;2023-03-20T10:22:44;8.00;8.00;5.00
49343;PMS5003;35210;41.606;-87.602;2023-03-20T10:25:25;9.80;9.40;4.40
49343;PMS5003;35210;41.606;-87.602;2023-03-20T10:27:58;11.40;10.60;5.80
49343;PMS5003;35210;41.606;-87.602;2023-03-20T10:30:32;11.40;8.40;6.60
49343;PMS5003;35210;41.606;-87.602;2023-03-20T10:33:11;10.80;10.80;6.20
49343;PMS5003;35210;41.606;-87.602;2023-03-20T10:35:55;14.00;11.00;6.40
49343;PMS5003;35210;41.606;-87.602;2023-03-20T10:38:36;17.00;13.00;5.00
49343;PMS5003;35210;41.606;-87.602;2023-03-20T10:41:12;11.20;8.60;4.00
49343;PMS5003;35210;41.606;-87.602;2023-03-20T10:43:44;13.40;11.00;5.00
49343;PMS5003;35210;41.606;-87.602;2023-03-20T10:46:16;13.40;10.80;4.00
49343;PMS5003;35210;41.606;-87.602;2023-03-20T10:48:49;10.80;10.80;5.00
49343;PMS5003;35210;41.606;-87.602;2023-03-20T10:51:27;13.80;10.40;5.00
49343;PMS5003;35210;41.606;-87.602;2023-03-20T10:54:02;14.40;10.60;5.00
49343;PMS5003;35210;41.606;-87.602;2023-03-20T10:56:37;12.40;11.60;5.40
49343;PMS5003;35210;41.606;-87.602;2023-03-20T10:59:13;8.00;7.20;4.00
49343;PMS5003;35210;41.606;-87.602;2023-03-20T11:01:47;11.80;11.20;4.40
49343;PMS5003;35210;41.606;-87.602;2023-03-20T11:04:15;5.60;4.80;4.00
49343;PMS5003;35210;41.606;-87.602;2023-03-20T11:06:45;12.00;11.40;5.00
49343;PMS5003;35210;41.606;-87.602;2023-03-20T11:09:20;11.20;9.00;5.40
49343;PMS5003;35210;41.606;-87.602;2023-03-20T11:11:50;13.40;9.40;4.80
49343;PMS5003;35210;41.606;-87.602;2023-03-20T11:14:22;11.40;10.00;5.00
49343;PMS5003;35210;41.606;-87.602;2023-03-20T11:16:52;13.00;13.00;6.20
49343;PMS5003;35210;41.606;-87.602;2023-03-20T11:19:22;11.00;6.20;2.00
49343;PMS5003;35210;41.606;-87.602;2023-03-20T11:21:53;10.00;6.60;2.40
49343;PMS5003;35210;41.606;-87.602;2023-03-20T11:24:26;11.40;10.00;5.20
49343;PMS5003;35210;41.606;-87.602;2023-03-20T11:27:05;13.40;9.60;5.40
49343;PMS5003;35210;41.606;-87.602;2023-03-20T11:29:35;12.60;8.80;5.40
49343;PMS5003;35210;41.606;-87.602;2023-03-20T11:32:06;9.80;7.60;3.60
49343;PMS5003;35210;41.606;-87.602;2023-03-20T11:34:43;10.40;10.40;6.60
49343;PMS5003;35210;41.606;-87.602;2023-03-20T11:37:21;8.40;6.60;3.60
49343;PMS5003;35210;41.606;-87.602;2023-03-20T11:39:55;9.20;8.00;2.40
49343;PMS5003;35210;41.606;-87.602;2023-03-20T11:42:25;13.80;10.80;5.80
49343;PMS5003;35210;41.606;-87.602;2023-03-20T11:44:56;1.60;0.20;0.00
49343;PMS5003;35210;41.606;-87.602;2023-03-20T11:47:26;10.40;9.60;5.20
49343;PMS5003;35210;41.606;-87.602;2023-03-20T11:49:59;14.40;10.60;3.60
49343;PMS5003;35210;41.606;-87.602;2023-03-20T11:52:30;14.80;9.00;5.00
49343;PMS5003;35210;41.606;-87.602;2023-03-20T11:55:00;10.00;10.00;4.00
49343;PMS5003;35210;41.606;-87.602;2023-03-20T11:57:32;7.80;7.40;4.00
49343;PMS5003;35210;41.606;-87.602;2023-03-20T12:00:03;9.80;9.80;4.00
49343;PMS5003;35210;41.606;-87.602;2023-03-20T12:02:41;8.80;5.60;4.40
49343;PMS5003;35210;41.606;-87.602;2023-03-20T12:08:02;11.00;8.80;3.20
49343;PMS5003;35210;41.606;-87.602;2023-03-20T12:10:36;12.60;10.40;5.20
49343;PMS5003;35210;41.606;-87.602;2023-03-20T12:13:10;13.80;11.80;4.00
49343;PMS5003;35210;41.606;-87.602;2023-03-20T12:15:43;13.00;9.20;3.80
49343;PMS5003;35210;41.606;-87.602;2023-03-20T12:18:19;11.40;9.00;4.00
49343;PMS5003;35210;41.606;-87.602;2023-03-20T12:20:58;12.00;8.00;4.60
49343;PMS5003;35210;41.606;-87.602;2023-03-20T12:23:37;12.20;10.40;6.00
49343;PMS5003;35210;41.606;-87.602;2023-03-20T12:26:10;9.60;7.40;5.00
49343;PMS5003;35210;41.606;-87.602;2023-03-20T12:28:40;13.20;12.60;7.00
49343;PMS5003;35210;41.606;-87.602;2023-03-20T12:31:16;11.00;8.80;4.20
49343;PMS5003;35210;41.606;-87.602;2023-03-20T12:33:50;10.40;6.60;3.20
49343;PMS5003;35210;41.606;-87.602;2023-03-20T12:36:24;10.80;7.60;5.00
49343;PMS5003;35210;41.606;-87.602;2023-03-20T12:38:59;8.40;5.40;0.80
49343;PMS5003;35210;41.606;-87.602;2023-03-20T12:41:29;11.00;8.40;4.00
49343;PMS5003;35210;41.606;-87.602;2023-03-20T12:47:12;19.60;11.00;5.00
49343;PMS5003;35210;41.606;-87.602;2023-03-20T12:49:49;10.40;9.80;4.20
49343;PMS5003;35210;41.606;-87.602;2023-03-20T12:52:26;11.80;11.80;4.60
49343;PMS5003;35210;41.606;-87.602;2023-03-20T12:55:16;13.80;10.80;4.60
49343;PMS5003;35210;41.606;-87.602;2023-03-20T12:57:57;10.00;6.60;4.40
49343;PMS5003;35210;41.606;-87.602;2023-03-20T13:00:33;13.60;11.00;5.00
49343;PMS5003;35210;41.606;-87.602;2023-03-20T13:03:07;11.80;10.20;5.80
49343;PMS5003;35210;41.606;-87.602;2023-03-20T13:05:46;9.40;8.00;5.00
49343;PMS5003;35210;41.606;-87.602;2023-03-20T13:08:33;13.00;10.60;6.20
49343;PMS5003;35210;41.606;-87.602;2023-03-20T13:11:23;10.00;10.00;4.60
49343;PMS5003;35210;41.606;-87.602;2023-03-20T13:13:58;12.60;10.80;5.80
49343;PMS5003;35210;41.606;-87.602;2023-03-20T13:16:34;16.40;11.00;7.00
49343;PMS5003;35210;41.606;-87.602;2023-03-20T13:19:11;15.60;12.80;7.00
49343;PMS5003;35210;41.606;-87.602;2023-03-20T13:21:49;9.20;9.20;5.80
49343;PMS5003;35210;41.606;-87.602;2023-03-20T13:24:26;10.20;8.40;4.00
49343;PMS5003;35210;41.606;-87.602;2023-03-20T13:27:10;14.40;11.40;4.60
49343;PMS5003;35210;41.606;-87.602;2023-03-20T13:29:51;14.20;10.40;6.20
49343;PMS5003;35210;41.606;-87.602;2023-03-20T13:32:45;8.00;8.00;4.20
49343;PMS5003;35210;41.606;-87.602;2023-03-20T13:35:27;11.00;9.00;4.00
49343;PMS5003;35210;41.606;-87.602;2023-03-20T13:38:11;16.20;7.00;4.00
49343;PMS5003;35210;41.606;-87.602;2023-03-20T13:40:45;8.80;8.80;5.20
49343;PMS5003;35210;41.606;-87.602;2023-03-20T13:43:22;8.80;8.00;5.00
49343;PMS5003;35210;41.606;-87.602;2023-03-20T13:45:55;4.20;4.20;0.00
49343;PMS5003;35210;41.606;-87.602;2023-03-20T13:48:33;10.00;8.20;5.00
49343;PMS5003;35210;41.606;-87.602;2023-03-20T13:51:05;9.20;9.00;5.00
49343;PMS5003;35210;41.606;-87.602;2023-03-20T13:53:46;10.00;8.40;4.60
49343;PMS5003;35210;41.606;-87.602;2023-03-20T13:56:25;15.60;11.60;5.60
49343;PMS5003;35210;41.606;-87.602;2023-03-20T13:59:08;12.00;9.60;4.00
49343;PMS5003;35210;41.606;-87.602;2023-03-20T14:01:51;11.80;8.20;4.00
49343;PMS5003;35210;41.606;-87.602;2023-03-20T14:04:27;10.60;9.80;5.00
49343;PMS5003;35210;41.606;-87.602;2023-03-20T14:06:57;9.00;8.80;5.20
49343;PMS5003;35210;41.606;-87.602;2023-03-20T14:09:27;5.00;5.00;4.00
49343;PMS5003;35210;41.606;-87.602;2023-03-20T14:11:59;10.80;8.00;4.00
49343;PMS5003;35210;41.606;-87.602;2023-03-20T14:14:31;12.00;9.60;5.00
49343;PMS5003;35210;41.606;-87.602;2023-03-20T14:17:07;16.60;9.80;5.00
49343;PMS5003;35210;41.606;-87.602;2023-03-20T14:19:42;9.60;8.20;5.00
49343;PMS5003;35210;41.606;-87.602;2023-03-20T14:22:14;13.40;10.40;6.00
49343;PMS5003;35210;41.606;-87.602;2023-03-20T14:24:55;9.80;6.60;4.60
49343;PMS5003;35210;41.606;-87.602;2023-03-20T14:27:26;7.20;6.80;3.00
49343;PMS5003;35210;41.606;-87.602;2023-03-20T14:32:51;9.00;8.00;3.40
49343;PMS5003;35210;41.606;-87.602;2023-03-20T14:35:26;5.20;5.20;3.00